Kafue Polder, Zambia

7:15 AM CAT on July 26, 2016 (GMT +0200)
Kenneth Kaunda Intl | | Change Station

Elev 1768 ft 15.33 °S, 28.46 °E | Updated 15 minutes ago

Partly Cloudy
Partly Cloudy
55 °F
Feels Like 55 °F
N
0
Wind Variable Wind from North

Today
High -- | Low -- °F
--% Chance of Precip.
Yesterday
High -- | Low -- °F
Precip. -- in
Pressure 30.12 in
Visibility 5.6 miles
Clouds Few 10000 ft
Dew Point 46 °F
Humidity 72%
Rainfall 0.00 in
Snow Depth Not available.
6:33 AM 5:55 PM
Waning Gibbous, 58% visible
METAR FLKK 260500Z 00000KT 9000 FEW100 13/08 Q1020
Pressure 30.12 in
Visibility 5.6 miles
Clouds Few 10000 ft
Dew Point 46 °F
Humidity 72%
Rainfall 0.00 in
Snow Depth Not available.
6:33 AM 5:55 PM
Waning Gibbous, 58% visible
METAR FLKK 260500Z 00000KT 9000 FEW100 13/08 Q1020

10-Day Weather Forecast

No radar image for this location.
×

Almanac

Astronomy

Jul. 26, 2016 Rise Set
Actual Time
Civil Twilight
Nautical Twilight
Astronomical Twilight
Moon
Length of Visible Light
Length of Day
Tomorrow will be .
, % of the Moon is Illuminated

Today's Extremes

Country Highs Country Lows

Community

WunderPhotos

Upload Photos

1,927,538 photos uploaded!

WunderBlog® & News

Nearby

Air Quality

  Air Quality AQ Index Pollutant
Not available.

Snow Depth

Station Depth Elevation

Earthquake Activity

City Distance Mag. Time & Date
Minimum magnitude displayed is 2.5.

Coastal Water Temperatures

Place Temperature

Stations

Nearby Weather Stations

Station Location Temp. Windchill Dew Point Humidity Wind Precip. Elev Updated Type